Time;durP1;ratioP1;P1;durP2;ratioP2;P2;SDS_P1;SDS_P2;PMS_P1;PMS_P2;Temp;Humidity;BMP_temperature;BMP_pressure;BME280_temperature;BME280_humidity;BME280_pressure;Samples;Min_cycle;Max_cycle;Signal;HPM_P1;HPM_P2
2021/08/23 00:00:49;;;;;;;5.95;5.32;;;;;;;21.55;39.55;94063.69;4987739;28;20046;-76
2021/08/23 00:03:14;;;;;;;6.50;5.53;;;;;;;21.91;39.59;94091.75;4972440;28;20042;-75
2021/08/23 00:05:39;;;;;;;7.30;5.32;;;;;;;22.05;39.71;94101.88;4975950;28;20401;-77
2021/08/23 00:08:05;;;;;;;20.50;5.70;;;;;;;22.08;39.57;94106.56;4974699;28;20113;-76
2021/08/23 00:10:31;;;;;;;7.05;5.25;;;;;;;22.06;39.27;94098.81;4974263;28;20507;-74
2021/08/23 00:12:56;;;;;;;8.32;5.82;;;;;;;22.04;39.24;94103.84;4972812;28;20592;-75
2021/08/23 00:15:21;;;;;;;10.60;6.45;;;;;;;21.92;38.38;94103.38;4972146;28;20619;-76
2021/08/23 00:17:47;;;;;;;7.07;5.72;;;;;;;21.99;38.52;94112.31;4972881;28;20118;-76
2021/08/23 00:20:16;;;;;;;6.47;5.88;;;;;;;21.93;39.49;94111.13;4972742;28;20501;-75
2021/08/23 00:22:48;;;;;;;6.65;5.75;;;;;;;21.75;39.56;94110.25;4974787;28;20648;-76
2021/08/23 00:25:19;;;;;;;6.63;5.85;;;;;;;21.57;39.60;94109.31;4978088;28;20041;-76
2021/08/23 00:27:44;;;;;;;7.15;5.50;;;;;;;21.57;39.85;94099.25;4972048;28;20042;-77
2021/08/23 00:30:12;;;;;;;6.22;5.63;;;;;;;21.60;39.73;94114.00;4973323;28;20101;-75
2021/08/23 00:32:37;;;;;;;6.60;5.80;;;;;;;21.74;39.38;94114.88;4972073;28;21084;-76
2021/08/23 00:35:03;;;;;;;6.25;5.65;;;;;;;21.67;39.37;94106.69;4974969;28;20033;-76
2021/08/23 00:37:29;;;;;;;5.97;5.38;;;;;;;21.48;40.84;94116.94;4972761;28;20045;-76
2021/08/23 00:39:54;;;;;;;9.23;6.00;;;;;;;21.44;39.57;94106.88;4972908;28;20124;-75
2021/08/23 00:42:20;;;;;;;6.53;5.88;;;;;;;21.57;39.75;94131.75;4975148;28;20042;-75
2021/08/23 00:44:46;;;;;;;6.85;5.82;;;;;;;21.47;39.31;94124.28;4976964;28;20062;-75
2021/08/23 00:47:12;;;;;;;7.07;6.05;;;;;;;21.30;38.91;94125.69;4974327;28;20046;-75
2021/08/23 00:49:38;;;;;;;6.88;5.88;;;;;;;21.00;39.55;94115.00;4973993;28;20153;-75
2021/08/23 00:52:05;;;;;;;7.80;6.57;;;;;;;20.92;39.34;94131.53;4975514;28;20084;-75
2021/08/23 00:54:31;;;;;;;10.00;6.20;;;;;;;20.76;39.82;94123.59;4970942;28;20078;-75
2021/08/23 00:56:57;;;;;;;9.02;7.03;;;;;;;20.73;39.38;94120.84;4972048;28;20077;-76
2021/08/23 00:59:23;;;;;;;7.28;6.57;;;;;;;20.41;40.44;94134.75;4969078;28;20047;-75
2021/08/23 01:01:48;;;;;;;10.48;6.10;;;;;;;20.37;39.90;94131.25;4978565;28;20030;-75
2021/08/23 01:04:35;;;;;;;6.80;5.90;;;;;;;19.92;40.13;94110.56;4965230;28;20473;-76
2021/08/23 01:07:02;;;;;;;6.70;6.10;;;;;;;20.07;40.15;94135.81;4972692;28;20038;-75
2021/08/23 01:09:55;;;;;;;7.88;6.07;;;;;;;20.14;39.90;94133.22;4970591;28;20133;-76
2021/08/23 01:12:23;;;;;;;7.82;6.28;;;;;;;19.96;40.23;94138.38;4990937;28;20582;-77
2021/08/23 01:14:48;;;;;;;10.75;7.70;;;;;;;19.85;41.15;94136.69;4988931;28;20053;-76
2021/08/23 01:17:14;;;;;;;7.85;6.78;;;;;;;19.99;41.41;94134.19;4988447;28;20097;-75
2021/08/23 01:19:45;;;;;;;8.20;7.28;;;;;;;20.13;40.63;94124.34;4974312;28;20031;-77
2021/08/23 01:22:12;;;;;;;6.97;6.07;;;;;;;20.15;42.34;94134.75;4973866;28;20050;-75
2021/08/23 01:24:39;;;;;;;8.75;6.55;;;;;;;20.33;42.55;94119.63;4973054;28;20042;-75
2021/08/23 01:27:09;;;;;;;6.85;5.90;;;;;;;20.48;42.42;94125.97;4971172;28;20432;-75
2021/08/23 01:29:58;;;;;;;10.80;6.72;;;;;;;20.67;42.91;94133.13;4973387;28;20452;-76
2021/08/23 01:32:27;;;;;;;8.32;6.40;;;;;;;20.75;42.39;94126.66;4973536;28;20663;-76
2021/08/23 01:34:53;;;;;;;7.25;6.07;;;;;;;20.80;42.50;94137.13;4974174;28;20041;-75
2021/08/23 01:37:21;;;;;;;8.25;6.05;;;;;;;20.93;42.44;94127.66;4973391;28;20033;-75
2021/08/23 01:39:47;;;;;;;10.13;6.10;;;;;;;20.76;42.32;94114.69;4968659;28;20039;-76
2021/08/23 01:42:13;;;;;;;7.45;5.78;;;;;;;20.85;41.69;94123.28;4969836;28;20046;-75
2021/08/23 01:44:40;;;;;;;7.43;6.72;;;;;;;20.73;41.54;94102.69;4973778;28;20630;-77
2021/08/23 01:47:06;;;;;;;9.98;5.90;;;;;;;20.76;41.33;94120.09;4971327;28;20121;-75
2021/08/23 01:49:32;;;;;;;7.18;6.38;;;;;;;20.67;41.61;94116.94;4975693;28;20032;-75
2021/08/23 01:51:57;;;;;;;6.93;6.22;;;;;;;20.48;41.74;94099.72;4970714;28;20046;-77
2021/08/23 01:54:23;;;;;;;6.70;5.68;;;;;;;20.20;42.11;94112.88;4974971;28;20026;-75
2021/08/23 01:56:49;;;;;;;6.63;5.90;;;;;;;20.28;42.21;94094.84;4967882;28;20074;-77
2021/08/23 01:59:15;;;;;;;7.38;6.55;;;;;;;20.11;42.65;94110.44;4978430;28;20047;-75
2021/08/23 02:01:40;;;;;;;7.32;6.63;;;;;;;20.40;42.32;94108.09;4992112;28;20393;-76
2021/08/23 02:04:06;;;;;;;8.05;6.07;;;;;;;20.65;42.01;94117.28;4971610;28;20041;-75
2021/08/23 02:06:32;;;;;;;6.85;6.15;;;;;;;20.64;41.79;94114.94;4974523;28;20478;-75
2021/08/23 02:08:58;;;;;;;7.53;6.03;;;;;;;20.54;41.65;94124.47;4972127;28;20043;-75
2021/08/23 02:11:24;;;;;;;8.77;6.32;;;;;;;20.41;42.45;94115.06;4973423;28;20045;-75
2021/08/23 02:13:50;;;;;;;6.70;5.97;;;;;;;20.19;42.81;94107.88;4972367;28;20056;-75
2021/08/23 02:16:16;;;;;;;7.05;6.10;;;;;;;20.11;43.50;94115.03;4969604;28;20034;-75
2021/08/23 02:18:41;;;;;;;9.93;6.55;;;;;;;19.89;43.91;94102.41;4969588;28;20085;-76
2021/08/23 02:21:07;;;;;;;6.93;6.15;;;;;;;19.73;44.66;94107.97;4970501;28;20038;-75
2021/08/23 02:23:33;;;;;;;8.82;6.13;;;;;;;19.58;45.11;94108.91;4969901;28;20117;-75
2021/08/23 02:25:58;;;;;;;7.68;6.07;;;;;;;19.34;45.69;94096.56;4973259;28;20056;-75
2021/08/23 02:28:24;;;;;;;6.97;6.28;;;;;;;19.46;45.37;94101.75;4973541;28;20763;-75
2021/08/23 02:30:49;;;;;;;8.02;6.68;;;;;;;19.48;45.36;94096.81;4975438;28;20109;-77
2021/08/23 02:33:15;;;;;;;8.50;6.38;;;;;;;19.50;45.04;94104.53;4974308;28;20108;-75
2021/08/23 02:35:40;;;;;;;6.63;6.03;;;;;;;19.59;44.58;94105.84;4972728;28;20893;-75
2021/08/23 02:38:08;;;;;;;9.25;5.63;;;;;;;19.53;44.37;94090.31;4971486;28;20046;-75
2021/08/23 02:40:34;;;;;;;7.03;6.32;;;;;;;19.59;44.20;94102.38;4975896;28;20022;-75
2021/08/23 02:43:02;;;;;;;7.47;6.47;;;;;;;19.50;43.75;94086.44;4970945;28;20524;-76
2021/08/23 02:45:28;;;;;;;6.40;5.80;;;;;;;19.69;44.07;94102.53;4971343;28;20034;-75
2021/08/23 02:47:53;;;;;;;8.18;6.15;;;;;;;19.62;43.78;94078.13;4974450;28;20998;-76
2021/08/23 02:50:19;;;;;;;7.18;6.20;;;;;;;19.53;44.19;94103.81;4972020;28;20038;-77
2021/08/23 02:52:44;;;;;;;6.65;5.95;;;;;;;19.46;44.36;94109.84;4973764;28;20035;-75
2021/08/23 02:55:10;;;;;;;8.63;6.85;;;;;;;19.43;44.00;94094.38;4966032;28;20306;-76
2021/08/23 02:57:35;;;;;;;7.50;6.20;;;;;;;19.63;43.93;94098.56;4975948;28;20049;-75
2021/08/23 03:00:06;;;;;;;7.15;6.45;;;;;;;19.59;44.14;94103.16;4973136;28;20501;-75
2021/08/23 03:02:31;;;;;;;7.47;6.30;;;;;;;19.63;44.14;94106.66;4977762;28;20039;-75
2021/08/23 03:04:57;;;;;;;6.97;6.20;;;;;;;19.56;44.19;94108.47;4971682;28;20033;-75
2021/08/23 03:07:22;;;;;;;8.07;7.03;;;;;;;19.43;44.66;94107.88;4975617;28;20058;-75
2021/08/23 03:09:47;;;;;;;7.13;6.43;;;;;;;19.26;45.57;94114.53;4973957;28;20417;-75
2021/08/23 03:12:13;;;;;;;10.75;6.60;;;;;;;19.17;45.85;94116.69;4976100;28;20918;-75
2021/08/23 03:14:39;;;;;;;6.95;6.25;;;;;;;19.09;45.34;94104.22;4991287;28;20117;-74
2021/08/23 03:17:04;;;;;;;7.82;6.80;;;;;;;19.02;45.32;94096.00;4973294;28;20132;-75
2021/08/23 03:19:29;;;;;;;6.25;5.65;;;;;;;19.20;45.46;94120.59;4979725;28;20412;-75
2021/08/23 03:21:55;;;;;;;10.07;7.22;;;;;;;19.11;45.60;94114.66;4977604;28;20043;-75
2021/08/23 03:24:20;;;;;;;8.85;6.20;;;;;;;18.93;46.15;94102.78;4976443;28;20034;-75
2021/08/23 03:26:46;;;;;;;9.50;6.95;;;;;;;19.03;46.05;94121.06;4975843;28;20409;-75
2021/08/23 03:29:12;;;;;;;9.98;6.55;;;;;;;18.98;46.20;94122.13;4977964;28;20120;-76
2021/08/23 03:31:40;;;;;;;7.68;6.75;;;;;;;18.94;46.19;94125.91;4975840;28;20038;-75
2021/08/23 03:34:08;;;;;;;6.85;5.70;;;;;;;18.89;46.64;94126.97;4976687;28;20042;-76
2021/08/23 03:36:35;;;;;;;11.02;7.35;;;;;;;18.89;46.38;94125.06;4979407;28;20069;-75
2021/08/23 03:39:01;;;;;;;8.88;7.18;;;;;;;18.78;46.65;94123.28;4971652;28;20520;-75
2021/08/23 03:41:26;;;;;;;9.18;6.50;;;;;;;18.79;46.79;94124.84;4975772;28;20121;-75
2021/08/23 03:43:52;;;;;;;9.73;6.90;;;;;;;18.67;47.00;94115.00;4974830;28;20034;-75
2021/08/23 03:46:17;;;;;;;7.15;6.47;;;;;;;18.75;46.56;94127.50;4975668;28;20097;-75
2021/08/23 03:48:42;;;;;;;7.55;6.82;;;;;;;18.73;46.86;94126.28;4978220;28;20042;-76
2021/08/23 03:51:08;;;;;;;9.02;6.55;;;;;;;18.49;46.93;94095.00;4964055;28;20070;-75
2021/08/23 03:53:33;;;;;;;9.02;6.82;;;;;;;18.70;47.31;94130.47;4957967;28;20464;-75
2021/08/23 03:55:58;;;;;;;9.48;7.15;;;;;;;18.67;47.21;94130.38;4956890;28;20572;-76
2021/08/23 03:58:24;;;;;;;8.05;7.25;;;;;;;18.59;47.13;94112.50;4976337;28;20038;-75
2021/08/23 04:00:49;;;;;;;9.27;7.07;;;;;;;18.57;47.64;94126.34;4973489;28;20073;-75
2021/08/23 04:03:14;;;;;;;7.60;6.22;;;;;;;18.50;47.79;94111.97;4975103;28;20034;-75
2021/08/23 04:05:42;;;;;;;8.98;6.90;;;;;;;18.55;48.20;94136.69;4974715;28;20500;-75
2021/08/23 04:08:07;;;;;;;8.82;7.30;;;;;;;18.61;48.33;94139.88;4969723;28;20488;-74
2021/08/23 04:10:33;;;;;;;9.10;6.90;;;;;;;18.54;48.37;94137.81;4975992;28;20053;-75
2021/08/23 04:12:58;;;;;;;8.02;7.15;;;;;;;18.48;47.99;94126.56;4973624;28;20497;-75
2021/08/23 04:15:23;;;;;;;7.93;7.13;;;;;;;18.66;47.50;94147.69;4978277;28;20600;-75
2021/08/23 04:17:49;;;;;;;11.63;7.43;;;;;;;18.61;48.04;94124.50;4974375;28;20039;-76
2021/08/23 04:20:14;;;;;;;9.80;7.20;;;;;;;18.71;48.35;94126.66;4976250;28;20041;-75
2021/08/23 04:22:40;;;;;;;9.73;7.40;;;;;;;18.83;48.47;94136.47;4976728;28;20183;-75
2021/08/23 04:25:06;;;;;;;8.00;6.97;;;;;;;18.88;47.76;94126.19;4975520;28;20039;-76
2021/08/23 04:27:31;;;;;;;11.07;7.53;;;;;;;18.96;48.04;94132.50;4974280;28;20093;-74
2021/08/23 04:29:57;;;;;;;7.57;6.50;;;;;;;19.04;47.65;94131.47;4972404;28;20046;-76
2021/08/23 04:32:22;;;;;;;8.55;6.35;;;;;;;19.05;48.47;94137.66;4974899;28;20049;-75
2021/08/23 04:34:47;;;;;;;8.55;6.85;;;;;;;19.16;47.61;94127.84;4974109;28;20441;-76
2021/08/23 04:37:13;;;;;;;10.60;7.53;;;;;;;19.42;46.85;94135.97;4976005;28;20045;-75
2021/08/23 04:39:38;;;;;;;12.60;7.53;;;;;;;19.53;46.42;94136.19;4973400;28;20038;-77
2021/08/23 04:42:04;;;;;;;8.43;7.22;;;;;;;19.52;46.07;94124.59;4974318;28;20034;-76
2021/08/23 04:44:29;;;;;;;8.32;7.32;;;;;;;19.72;45.66;94126.06;4975040;28;20042;-76
2021/08/23 04:46:55;;;;;;;8.27;6.90;;;;;;;19.86;45.80;94149.00;4973802;28;20081;-75
2021/08/23 04:49:20;;;;;;;9.82;7.18;;;;;;;19.96;45.71;94146.47;4976197;28;20077;-76
2021/08/23 04:51:45;;;;;;;12.32;7.78;;;;;;;19.96;45.14;94132.97;4975978;28;20046;-76
2021/08/23 04:54:11;;;;;;;10.38;8.63;;;;;;;20.07;44.72;94133.91;4974064;28;20042;-75
2021/08/23 04:56:36;;;;;;;11.23;8.15;;;;;;;20.11;44.53;94121.22;4974301;28;20030;-75
2021/08/23 04:59:02;;;;;;;10.25;7.15;;;;;;;20.24;44.54;94111.00;4973646;28;20031;-75
2021/08/23 05:01:27;;;;;;;8.90;6.68;;;;;;;20.36;43.96;94118.88;4977527;28;20557;-75
2021/08/23 05:03:53;;;;;;;11.00;7.60;;;;;;;20.41;44.04;94126.66;4969850;28;20628;-75
2021/08/23 05:06:18;;;;;;;12.98;7.97;;;;;;;20.51;43.81;94126.00;4968722;28;20054;-76
2021/08/23 05:08:44;;;;;;;9.02;7.28;;;;;;;20.63;43.82;94129.63;4976680;28;20038;-76
2021/08/23 05:11:10;;;;;;;10.88;7.72;;;;;;;20.62;43.78;94128.06;4974539;28;20564;-77
2021/08/23 05:13:36;;;;;;;54.58;9.95;;;;;;;20.77;43.24;94132.47;4987526;28;20437;-76
2021/08/23 05:16:01;;;;;;;9.40;7.63;;;;;;;20.75;43.60;94118.53;4976112;28;20074;-75
2021/08/23 05:18:26;;;;;;;9.15;7.43;;;;;;;20.65;43.27;94119.22;4973693;28;20050;-75
2021/08/23 05:20:52;;;;;;;10.02;7.18;;;;;;;20.78;43.84;94118.56;4973723;28;20524;-75
2021/08/23 05:23:17;;;;;;;12.10;7.68;;;;;;;20.80;43.75;94120.91;4973883;28;20038;-77
2021/08/23 05:25:43;;;;;;;8.32;7.22;;;;;;;20.89;43.14;94113.31;4977422;28;20034;-76
2021/08/23 05:28:08;;;;;;;10.98;7.03;;;;;;;21.00;42.86;94122.31;4973870;28;20043;-75
2021/08/23 05:30:34;;;;;;;9.75;7.45;;;;;;;21.13;42.63;94123.59;4975026;28;20070;-75
2021/08/23 05:33:00;;;;;;;14.48;6.80;;;;;;;21.17;42.69;94127.09;4974379;28;20042;-75
2021/08/23 05:35:26;;;;;;;8.07;6.90;;;;;;;21.27;42.35;94123.72;4978059;28;20068;-75
2021/08/23 05:37:52;;;;;;;13.07;7.78;;;;;;;21.27;42.29;94118.31;4969024;28;20777;-75
2021/08/23 05:40:19;;;;;;;12.05;7.30;;;;;;;21.48;41.86;94133.19;4972265;28;20489;-76
2021/08/23 05:42:44;;;;;;;13.23;7.72;;;;;;;21.37;42.23;94124.97;4974483;28;20039;-76
2021/08/23 05:45:10;;;;;;;15.25;8.50;;;;;;;21.42;42.00;94141.63;4971182;28;20089;-75
2021/08/23 05:47:37;;;;;;;13.95;7.72;;;;;;;21.49;42.54;94129.34;4973820;28;20043;-76
2021/08/23 05:50:02;;;;;;;10.98;7.55;;;;;;;21.48;41.76;94122.34;4969921;28;20026;-75
2021/08/23 05:52:28;;;;;;;14.75;8.07;;;;;;;21.55;42.03;94123.25;4972703;28;20441;-75
2021/08/23 05:54:53;;;;;;;10.95;7.28;;;;;;;21.59;41.21;94123.25;4972719;28;20129;-75
2021/08/23 05:57:18;;;;;;;9.00;6.63;;;;;;;21.74;40.99;94146.56;4974978;28;20400;-76
2021/08/23 05:59:44;;;;;;;7.95;7.15;;;;;;;21.74;41.03;94133.81;4971826;28;20045;-75
2021/08/23 06:02:09;;;;;;;11.27;7.82;;;;;;;21.76;41.55;94138.84;4968332;28;20421;-78
2021/08/23 06:04:35;;;;;;;13.88;7.22;;;;;;;21.65;41.51;94109.00;4972212;28;20083;-76
2021/08/23 06:07:00;;;;;;;9.23;7.72;;;;;;;21.71;41.05;94131.06;4975237;28;20035;-75
2021/08/23 06:09:26;;;;;;;12.15;7.63;;;;;;;21.63;42.07;94135.66;4971312;28;20047;-76
2021/08/23 06:11:51;;;;;;;8.32;6.90;;;;;;;21.70;42.16;94151.19;4975168;28;20072;-75
2021/08/23 06:14:17;;;;;;;11.10;7.10;;;;;;;21.70;41.50;94140.34;4974240;28;20042;-75
2021/08/23 06:16:43;;;;;;;10.20;6.95;;;;;;;21.77;41.97;94140.41;4977526;28;20097;-75
2021/08/23 06:19:08;;;;;;;9.73;6.70;;;;;;;21.90;41.41;94132.78;4970895;28;20039;-75
2021/08/23 06:21:36;;;;;;;9.80;7.05;;;;;;;21.77;42.13;94102.50;4987362;28;20438;-76
2021/08/23 06:24:02;;;;;;;7.93;7.13;;;;;;;22.01;41.05;94137.06;4969168;28;20041;-75
2021/08/23 06:26:28;;;;;;;11.63;7.43;;;;;;;22.14;41.14;94124.81;4958322;28;20769;-75
2021/08/23 06:28:53;;;;;;;11.35;6.65;;;;;;;22.09;40.99;94091.88;4965654;28;20042;-76
2021/08/23 06:31:19;;;;;;;12.18;7.88;;;;;;;22.48;40.59;94132.72;4973333;28;20088;-76
2021/08/23 06:33:44;;;;;;;10.90;6.43;;;;;;;22.61;40.87;94128.50;4978323;28;20521;-75
2021/08/23 06:36:09;;;;;;;8.05;6.47;;;;;;;22.78;40.65;94138.63;4970014;28;20156;-77
2021/08/23 06:38:35;;;;;;;9.13;6.20;;;;;;;22.87;39.97;94141.03;4973340;28;20030;-76
2021/08/23 06:41:00;;;;;;;9.70;6.07;;;;;;;22.82;39.67;94133.25;4975651;28;20110;-75
2021/08/23 06:43:26;;;;;;;12.45;6.82;;;;;;;22.87;39.44;94141.03;4975092;28;20018;-75
2021/08/23 06:45:51;;;;;;;10.20;6.25;;;;;;;22.79;39.82;94132.06;4974155;28;20074;-75
2021/08/23 06:48:17;;;;;;;10.73;6.70;;;;;;;22.96;40.59;94139.50;4976048;28;20073;-75
2021/08/23 06:50:42;;;;;;;11.88;7.28;;;;;;;22.92;40.04;94130.59;4975603;28;20137;-75
2021/08/23 06:53:08;;;;;;;9.27;6.93;;;;;;;23.00;40.60;94140.28;4972246;28;20030;-76
2021/08/23 06:55:33;;;;;;;9.63;6.30;;;;;;;23.20;39.94;94134.53;4976681;28;20026;-75
2021/08/23 06:57:59;;;;;;;9.23;6.53;;;;;;;23.30;38.89;94126.41;4975915;28;20539;-76
2021/08/23 07:00:25;;;;;;;10.80;7.13;;;;;;;23.40;39.01;94141.13;4979585;28;20525;-77
2021/08/23 07:02:50;;;;;;;12.13;6.47;;;;;;;23.46;38.62;94142.31;4975869;28;20144;-77
2021/08/23 07:05:16;;;;;;;11.35;5.93;;;;;;;23.24;38.82;94121.72;4976857;28;20045;-78
2021/08/23 07:07:41;;;;;;;10.30;6.30;;;;;;;23.42;38.58;94115.16;4977997;28;20042;-75
2021/08/23 07:10:12;;;;;;;8.90;5.95;;;;;;;23.57;38.69;94124.88;4974145;28;20156;-77
2021/08/23 07:12:39;;;;;;;8.27;6.53;;;;;;;23.69;38.01;94121.00;4991246;28;20034;-76
2021/08/23 07:15:04;;;;;;;11.07;6.50;;;;;;;23.54;38.34;94114.03;4977982;28;20045;-76
2021/08/23 07:17:30;;;;;;;11.05;6.10;;;;;;;23.70;38.29;94119.06;4975663;28;20038;-77
2021/08/23 07:19:55;;;;;;;7.15;6.40;;;;;;;23.64;37.88;94124.13;4976829;28;20647;-76
2021/08/23 07:22:22;;;;;;;11.48;6.68;;;;;;;23.62;38.62;94096.56;4977254;28;20026;-76
2021/08/23 07:24:47;;;;;;;9.80;7.03;;;;;;;23.86;38.52;94103.91;4974483;28;20073;-77
2021/08/23 07:27:14;;;;;;;9.70;6.30;;;;;;;23.78;38.16;94077.16;4977357;28;20130;-75
2021/08/23 07:29:40;;;;;;;12.18;7.75;;;;;;;24.11;37.62;94103.09;4975729;28;20566;-77
2021/08/23 07:32:05;;;;;;;13.35;6.45;;;;;;;24.27;37.17;94103.47;4977117;28;20026;-76
2021/08/23 07:34:31;;;;;;;10.98;6.57;;;;;;;24.16;37.44;94092.63;4976106;28;20034;-76
2021/08/23 07:36:56;;;;;;;10.52;6.20;;;;;;;24.39;37.31;94105.78;4976515;28;20627;-77
2021/08/23 07:39:21;;;;;;;14.10;6.97;;;;;;;24.25;37.06;94084.81;4977569;28;20141;-77
2021/08/23 07:41:48;;;;;;;10.40;7.10;;;;;;;24.52;37.49;94112.31;4974027;28;20034;-77
2021/08/23 07:44:13;;;;;;;8.75;6.38;;;;;;;24.59;37.90;94103.38;4978658;28;20031;-75
2021/08/23 07:46:39;;;;;;;10.98;6.82;;;;;;;24.54;38.95;94109.97;4976382;28;20583;-75
2021/08/23 07:49:04;;;;;;;11.00;7.00;;;;;;;24.65;37.56;94104.50;4976301;28;21307;-76
2021/08/23 07:51:30;;;;;;;8.32;6.03;;;;;;;24.69;37.21;94100.56;4977280;28;20056;-77
2021/08/23 07:53:55;;;;;;;14.50;6.82;;;;;;;24.66;36.98;94103.31;4975722;28;20034;-77
2021/08/23 07:56:20;;;;;;;10.93;7.13;;;;;;;24.65;36.94;94083.50;4974275;28;20272;-77
2021/08/23 07:58:46;;;;;;;10.18;6.88;;;;;;;24.56;36.51;94085.88;4976716;28;20029;-75
2021/08/23 08:01:11;;;;;;;8.15;6.28;;;;;;;24.77;36.75;94099.41;4978701;28;20038;-77
2021/08/23 08:03:38;;;;;;;8.95;7.25;;;;;;;24.74;36.67;94086.59;4975602;28;20026;-76
2021/08/23 08:06:03;;;;;;;11.73;6.57;;;;;;;24.82;36.88;94085.41;4975774;28;20035;-76
2021/08/23 08:08:29;;;;;;;11.60;6.53;;;;;;;24.70;36.90;94083.09;4972690;28;20680;-76
2021/08/23 08:10:58;;;;;;;9.75;6.28;;;;;;;24.85;36.77;94095.47;4974744;28;20045;-75
2021/08/23 08:13:24;;;;;;;12.27;6.43;;;;;;;24.83;36.55;94088.91;4968411;28;20057;-77
2021/08/23 08:15:50;;;;;;;13.48;7.78;;;;;;;24.94;36.15;94091.53;4971738;28;20497;-76
2021/08/23 08:18:15;;;;;;;13.32;6.75;;;;;;;24.87;36.57;94080.72;4975316;28;20156;-77
2021/08/23 08:20:40;;;;;;;10.20;6.97;;;;;;;24.76;35.91;94083.50;4971715;28;20069;-76
2021/08/23 08:23:06;;;;;;;8.27;6.20;;;;;;;24.86;35.97;94077.22;4990212;28;20346;-76
2021/08/23 08:25:31;;;;;;;15.30;7.95;;;;;;;25.05;36.52;94097.69;4970360;28;20040;-76
2021/08/23 08:27:57;;;;;;;12.65;7.35;;;;;;;25.11;35.86;94093.41;4975134;28;20033;-77
2021/08/23 08:30:22;;;;;;;10.02;6.72;;;;;;;25.11;36.35;94079.78;4969982;28;20149;-75
2021/08/23 08:32:48;;;;;;;10.35;6.30;;;;;;;25.17;36.50;94081.69;4974146;28;20125;-76
2021/08/23 08:35:13;;;;;;;9.43;6.47;;;;;;;25.22;35.67;94086.69;4971299;28;20397;-76
2021/08/23 08:37:40;;;;;;;12.73;6.20;;;;;;;25.28;36.96;94081.59;4974205;28;20424;-76
2021/08/23 08:40:06;;;;;;;8.57;6.50;;;;;;;25.21;35.72;94081.66;4973013;28;20026;-77
2021/08/23 08:42:32;;;;;;;12.05;6.30;;;;;;;25.00;35.63;94068.19;4972609;28;20121;-75
2021/08/23 08:44:57;;;;;;;11.05;6.03;;;;;;;25.14;35.25;94076.25;4973814;28;20485;-76
2021/08/23 08:47:23;;;;;;;9.90;5.80;;;;;;;25.24;35.48;94080.84;4972061;28;20501;-75
2021/08/23 08:49:51;;;;;;;8.68;7.22;;;;;;;25.28;35.48;94084.31;4974183;28;20050;-75
2021/08/23 08:52:19;;;;;;;14.15;6.82;;;;;;;25.31;34.80;94083.56;4985876;28;20077;-76
2021/08/23 08:54:45;;;;;;;7.45;6.75;;;;;;;25.40;35.21;94081.16;4971942;28;20042;-75
2021/08/23 08:57:11;;;;;;;7.55;6.60;;;;;;;25.20;34.88;94039.28;4971882;28;20128;-77
2021/08/23 08:59:37;;;;;;;12.77;7.22;;;;;;;25.43;34.56;94074.91;4972780;28;20034;-76
2021/08/23 09:02:04;;;;;;;8.18;6.20;;;;;;;25.46;34.97;94065.94;4970357;28;20038;-78
2021/08/23 09:04:35;;;;;;;11.30;6.70;;;;;;;25.55;35.03;94068.97;4974038;28;20113;-76
2021/08/23 09:07:00;;;;;;;11.38;6.28;;;;;;;25.53;34.35;94062.38;4976124;28;20054;-76
2021/08/23 09:09:27;;;;;;;7.55;5.32;;;;;;;25.50;36.73;94072.13;4970508;28;20225;-76
2021/08/23 09:11:55;;;;;;;8.07;7.28;;;;;;;25.57;35.33;94066.63;4974440;28;20074;-75
2021/08/23 09:14:21;;;;;;;9.05;5.70;;;;;;;25.50;34.96;94055.78;4968961;28;20053;-77
2021/08/23 09:16:46;;;;;;;13.50;6.40;;;;;;;25.47;35.35;94050.38;4974404;28;20042;-76
2021/08/23 09:19:26;;;;;;;9.80;6.13;;;;;;;25.46;35.57;94055.06;4971136;28;20402;-76
2021/08/23 09:22:00;;;;;;;7.80;6.05;;;;;;;25.65;33.90;94059.16;4973819;28;20046;-75
2021/08/23 09:24:30;;;;;;;7.03;6.43;;;;;;;25.62;34.12;94049.06;4968063;28;20179;-76
2021/08/23 09:27:08;;;;;;;6.05;5.30;;;;;;;25.44;34.31;94043.78;4971052;28;20038;-76
2021/08/23 09:30:00;;;;;;;9.50;5.40;;;;;;;25.65;34.15;94049.06;4969521;28;20053;-77
2021/08/23 09:32:27;;;;;;;8.65;5.55;;;;;;;25.64;34.33;94044.78;4970304;28;20038;-76
2021/08/23 09:34:53;;;;;;;7.38;5.85;;;;;;;25.74;33.21;94037.69;4974339;28;20117;-75
2021/08/23 09:37:22;;;;;;;5.38;4.88;;;;;;;25.80;33.38;94036.06;4974807;28;20057;-76
2021/08/23 09:39:48;;;;;;;7.25;5.57;;;;;;;25.83;33.54;94018.91;4973839;28;20045;-77
2021/08/23 09:42:17;;;;;;;9.82;5.47;;;;;;;25.94;33.09;94032.44;4972592;28;20039;-76
2021/08/23 09:44:43;;;;;;;5.97;5.28;;;;;;;25.85;32.86;94018.50;4975128;28;20047;-76
2021/08/23 09:47:09;;;;;;;9.50;6.18;;;;;;;26.06;33.07;94026.47;4975035;28;20044;-77
2021/08/23 09:49:45;;;;;;;7.72;5.95;;;;;;;26.08;33.14;94024.13;4974236;28;20030;-76
2021/08/23 09:52:22;;;;;;;7.38;4.90;;;;;;;26.05;32.79;94035.84;4970131;28;20046;-76
2021/08/23 09:54:59;;;;;;;7.60;5.90;;;;;;;25.96;32.03;93989.97;4970530;28;20398;-76
2021/08/23 09:57:25;;;;;;;9.02;5.35;;;;;;;26.30;32.46;94000.84;4973098;28;20848;-76
2021/08/23 09:59:52;;;;;;;5.95;5.35;;;;;;;26.31;32.64;94007.09;4973998;28;20453;-75
2021/08/23 10:02:17;;;;;;;5.78;5.18;;;;;;;26.22;31.41;94007.59;4971425;28;20100;-76
2021/08/23 10:04:43;;;;;;;5.32;4.70;;;;;;;26.28;30.93;94002.47;4976071;28;20030;-75
2021/08/23 10:07:10;;;;;;;11.52;4.75;;;;;;;26.32;31.10;93995.78;4967300;28;20112;-76
2021/08/23 10:09:41;;;;;;;8.18;4.82;;;;;;;26.32;30.16;93995.78;4976470;28;20054;-76
2021/08/23 10:12:07;;;;;;;4.47;4.07;;;;;;;26.33;28.87;93986.44;4994365;28;20046;-77
2021/08/23 10:14:33;;;;;;;7.95;5.10;;;;;;;26.36;29.40;93996.50;4978572;28;20057;-77
2021/08/23 10:16:59;;;;;;;6.07;5.05;;;;;;;26.39;30.08;93990.25;4978180;28;20504;-76
2021/08/23 10:19:26;;;;;;;5.95;4.70;;;;;;;26.47;30.72;93980.81;4978806;28;20029;-76
2021/08/23 10:21:52;;;;;;;7.68;4.70;;;;;;;26.57;30.71;93995.50;4978843;28;20038;-75
2021/08/23 10:24:24;;;;;;;17.35;5.25;;;;;;;26.69;30.37;93991.44;4972476;28;20890;-77
2021/08/23 10:26:50;;;;;;;7.00;4.90;;;;;;;26.83;30.45;93992.00;4977113;28;20097;-76
2021/08/23 10:29:15;;;;;;;7.25;5.63;;;;;;;26.79;29.56;93988.53;4966105;28;20046;-75
2021/08/23 10:31:43;;;;;;;5.15;4.65;;;;;;;26.86;29.18;93974.78;4965484;28;20030;-78
2021/08/23 10:34:15;;;;;;;5.47;4.97;;;;;;;26.91;28.48;93987.19;4974437;28;20041;-76
2021/08/23 10:36:41;;;;;;;6.75;4.32;;;;;;;27.02;28.73;93968.75;4970297;28;20417;-77
2021/08/23 10:39:06;;;;;;;6.45;5.63;;;;;;;26.96;29.26;93975.81;4971812;28;20049;-75
2021/08/23 10:41:32;;;;;;;10.30;5.53;;;;;;;26.78;29.80;93975.31;4974733;28;20072;-76
2021/08/23 10:44:00;;;;;;;8.35;4.82;;;;;;;26.89;29.99;93973.19;4977931;28;20022;-75
2021/08/23 10:46:34;;;;;;;6.85;4.72;;;;;;;26.86;30.01;93965.84;4985884;28;20026;-76
2021/08/23 10:49:04;;;;;;;7.78;4.57;;;;;;;26.71;29.31;93946.19;4973013;28;20046;-76
2021/08/23 10:51:54;;;;;;;6.43;5.43;;;;;;;26.75;29.18;93957.03;4963626;28;20046;-75
2021/08/23 10:54:24;;;;;;;7.50;5.05;;;;;;;26.79;28.50;93958.53;4966853;28;20161;-78
2021/08/23 10:57:01;;;;;;;8.45;4.60;;;;;;;26.70;28.11;93938.41;4981048;28;20057;-76
2021/08/23 11:00:10;;;;;;;8.68;5.28;;;;;;;26.59;28.52;93943.25;4970768;28;20806;-76
2021/08/23 11:02:37;;;;;;;6.15;4.70;;;;;;;26.76;30.65;93937.53;4954263;28;20421;-76
2021/08/23 11:05:12;;;;;;;6.45;4.88;;;;;;;26.89;28.63;93932.25;4976392;28;20088;-77
2021/08/23 11:07:41;;;;;;;6.45;4.45;;;;;;;27.05;28.13;93932.41;4980994;28;20322;-77
2021/08/23 11:10:16;;;;;;;6.35;4.55;;;;;;;27.02;28.00;93932.50;4966885;28;20074;-75
2021/08/23 11:12:54;;;;;;;9.23;4.90;;;;;;;27.05;27.74;93937.09;4974750;28;20046;-75
2021/08/23 11:15:32;;;;;;;5.35;4.95;;;;;;;27.14;27.21;93932.66;4971632;28;20599;-76
2021/08/23 11:18:04;;;;;;;8.52;4.20;;;;;;;27.26;27.34;93918.41;4974550;28;20046;-75
2021/08/23 11:20:31;;;;;;;6.28;4.85;;;;;;;26.97;27.12;93918.09;4989440;28;21191;-76
2021/08/23 11:23:03;;;;;;;5.45;4.65;;;;;;;27.07;26.52;93932.00;4975663;28;20030;-75
2021/08/23 11:25:34;;;;;;;10.20;4.95;;;;;;;27.15;27.63;93926.00;4968659;28;20030;-75
2021/08/23 11:28:03;;;;;;;7.25;4.72;;;;;;;27.11;26.98;93913.63;4975776;28;20038;-76
2021/08/23 11:30:34;;;;;;;4.78;4.38;;;;;;;27.06;27.00;93912.13;4974531;28;20038;-75